sensor_id;sensor_type;location;lat;lon;timestamp;P1;durP1;ratioP1;P2;durP2;ratioP2
65420;SDS011;52028;50.658;14.004;2022-10-16T00:01:14;53.05;;;25.02;;
65420;SDS011;52028;50.658;14.004;2022-10-16T00:03:41;55.65;;;27.45;;
65420;SDS011;52028;50.658;14.004;2022-10-16T00:06:08;53.75;;;25.52;;
65420;SDS011;52028;50.658;14.004;2022-10-16T00:08:35;53.22;;;26.40;;
65420;SDS011;52028;50.658;14.004;2022-10-16T00:11:11;50.47;;;25.98;;
65420;SDS011;52028;50.658;14.004;2022-10-16T00:13:42;50.58;;;26.27;;
65420;SDS011;52028;50.658;14.004;2022-10-16T00:16:10;52.50;;;25.25;;
65420;SDS011;52028;50.658;14.004;2022-10-16T00:18:37;52.92;;;25.58;;
65420;SDS011;52028;50.658;14.004;2022-10-16T00:21:03;51.05;;;24.70;;
65420;SDS011;52028;50.658;14.004;2022-10-16T00:23:33;53.20;;;24.60;;
65420;SDS011;52028;50.658;14.004;2022-10-16T00:26:00;44.45;;;23.52;;
65420;SDS011;52028;50.658;14.004;2022-10-16T00:28:28;43.15;;;23.15;;
65420;SDS011;52028;50.658;14.004;2022-10-16T00:30:54;48.55;;;23.92;;
65420;SDS011;52028;50.658;14.004;2022-10-16T00:33:20;50.03;;;23.67;;
65420;SDS011;52028;50.658;14.004;2022-10-16T00:35:45;48.22;;;23.35;;
65420;SDS011;52028;50.658;14.004;2022-10-16T00:38:11;50.90;;;24.55;;
65420;SDS011;52028;50.658;14.004;2022-10-16T00:40:36;47.83;;;23.40;;
65420;SDS011;52028;50.658;14.004;2022-10-16T00:43:02;46.90;;;23.38;;
65420;SDS011;52028;50.658;14.004;2022-10-16T00:45:27;52.75;;;25.50;;
65420;SDS011;52028;50.658;14.004;2022-10-16T00:47:53;50.35;;;23.70;;
65420;SDS011;52028;50.658;14.004;2022-10-16T00:50:22;50.47;;;25.67;;
65420;SDS011;52028;50.658;14.004;2022-10-16T00:52:51;63.65;;;26.73;;
65420;SDS011;52028;50.658;14.004;2022-10-16T00:55:18;54.72;;;27.40;;
65420;SDS011;52028;50.658;14.004;2022-10-16T00:57:43;53.67;;;24.77;;
65420;SDS011;52028;50.658;14.004;2022-10-16T01:00:11;52.75;;;26.50;;
65420;SDS011;52028;50.658;14.004;2022-10-16T01:02:38;48.80;;;26.23;;
65420;SDS011;52028;50.658;14.004;2022-10-16T01:05:04;54.33;;;25.90;;
65420;SDS011;52028;50.658;14.004;2022-10-16T01:13:33;55.08;;;25.35;;
65420;SDS011;52028;50.658;14.004;2022-10-16T01:16:17;51.95;;;24.88;;
65420;SDS011;52028;50.658;14.004;2022-10-16T01:18:56;52.00;;;24.75;;
65420;SDS011;52028;50.658;14.004;2022-10-16T01:21:35;52.25;;;25.40;;
65420;SDS011;52028;50.658;14.004;2022-10-16T01:29:41;54.38;;;26.40;;
65420;SDS011;52028;50.658;14.004;2022-10-16T01:32:13;51.83;;;25.92;;
65420;SDS011;52028;50.658;14.004;2022-10-16T01:34:48;50.45;;;26.00;;
65420;SDS011;52028;50.658;14.004;2022-10-16T01:37:20;51.97;;;25.27;;
65420;SDS011;52028;50.658;14.004;2022-10-16T01:39:52;46.88;;;25.00;;
65420;SDS011;52028;50.658;14.004;2022-10-16T01:42:21;50.10;;;25.50;;
65420;SDS011;52028;50.658;14.004;2022-10-16T01:44:49;51.25;;;24.35;;
65420;SDS011;52028;50.658;14.004;2022-10-16T01:47:16;51.40;;;25.52;;
65420;SDS011;52028;50.658;14.004;2022-10-16T01:49:43;52.88;;;25.75;;
65420;SDS011;52028;50.658;14.004;2022-10-16T01:52:11;46.35;;;24.52;;
65420;SDS011;52028;50.658;14.004;2022-10-16T01:54:40;46.65;;;24.55;;
65420;SDS011;52028;50.658;14.004;2022-10-16T01:57:08;55.85;;;26.17;;
65420;SDS011;52028;50.658;14.004;2022-10-16T01:59:38;51.50;;;27.15;;
65420;SDS011;52028;50.658;14.004;2022-10-16T02:02:09;52.45;;;26.30;;
65420;SDS011;52028;50.658;14.004;2022-10-16T02:04:38;54.17;;;25.92;;
65420;SDS011;52028;50.658;14.004;2022-10-16T02:07:07;50.72;;;25.92;;
65420;SDS011;52028;50.658;14.004;2022-10-16T02:09:33;47.05;;;25.77;;
65420;SDS011;52028;50.658;14.004;2022-10-16T02:11:59;49.78;;;24.45;;
65420;SDS011;52028;50.658;14.004;2022-10-16T02:14:29;48.13;;;24.67;;
65420;SDS011;52028;50.658;14.004;2022-10-16T02:16:55;49.17;;;25.80;;
65420;SDS011;52028;50.658;14.004;2022-10-16T02:19:20;48.28;;;23.75;;
65420;SDS011;52028;50.658;14.004;2022-10-16T02:21:49;50.58;;;25.08;;
65420;SDS011;52028;50.658;14.004;2022-10-16T02:24:30;51.65;;;24.75;;
65420;SDS011;52028;50.658;14.004;2022-10-16T02:27:08;47.63;;;25.88;;
65420;SDS011;52028;50.658;14.004;2022-10-16T02:29:40;56.88;;;28.10;;
65420;SDS011;52028;50.658;14.004;2022-10-16T02:32:10;57.85;;;29.85;;
65420;SDS011;52028;50.658;14.004;2022-10-16T02:34:38;51.45;;;26.83;;
65420;SDS011;52028;50.658;14.004;2022-10-16T02:37:05;48.58;;;26.45;;
65420;SDS011;52028;50.658;14.004;2022-10-16T02:39:31;54.67;;;27.88;;
65420;SDS011;52028;50.658;14.004;2022-10-16T02:41:57;45.22;;;24.17;;
65420;SDS011;52028;50.658;14.004;2022-10-16T02:44:23;50.50;;;25.58;;
65420;SDS011;52028;50.658;14.004;2022-10-16T02:46:48;52.00;;;25.67;;
65420;SDS011;52028;50.658;14.004;2022-10-16T02:49:13;48.85;;;25.42;;
65420;SDS011;52028;50.658;14.004;2022-10-16T02:51:39;46.08;;;25.08;;
65420;SDS011;52028;50.658;14.004;2022-10-16T02:54:04;40.08;;;22.27;;
65420;SDS011;52028;50.658;14.004;2022-10-16T02:56:29;45.90;;;22.52;;
65420;SDS011;52028;50.658;14.004;2022-10-16T02:58:55;43.45;;;24.00;;
65420;SDS011;52028;50.658;14.004;2022-10-16T03:01:21;48.20;;;26.23;;
65420;SDS011;52028;50.658;14.004;2022-10-16T03:03:46;49.10;;;25.73;;
65420;SDS011;52028;50.658;14.004;2022-10-16T03:06:11;56.20;;;27.95;;
65420;SDS011;52028;50.658;14.004;2022-10-16T03:08:37;51.67;;;26.52;;
65420;SDS011;52028;50.658;14.004;2022-10-16T03:11:02;57.20;;;27.25;;
65420;SDS011;52028;50.658;14.004;2022-10-16T03:13:27;50.88;;;25.67;;
65420;SDS011;52028;50.658;14.004;2022-10-16T03:15:53;48.75;;;25.48;;
65420;SDS011;52028;50.658;14.004;2022-10-16T03:18:18;51.38;;;26.75;;
65420;SDS011;52028;50.658;14.004;2022-10-16T03:20:43;45.63;;;25.25;;
65420;SDS011;52028;50.658;14.004;2022-10-16T03:23:09;47.78;;;24.33;;
65420;SDS011;52028;50.658;14.004;2022-10-16T03:25:34;50.33;;;24.55;;
65420;SDS011;52028;50.658;14.004;2022-10-16T03:28:00;54.08;;;26.20;;
65420;SDS011;52028;50.658;14.004;2022-10-16T03:30:25;47.75;;;25.55;;
65420;SDS011;52028;50.658;14.004;2022-10-16T03:32:51;55.00;;;26.45;;
65420;SDS011;52028;50.658;14.004;2022-10-16T03:35:22;47.58;;;24.23;;
65420;SDS011;52028;50.658;14.004;2022-10-16T03:37:49;52.60;;;25.55;;
65420;SDS011;52028;50.658;14.004;2022-10-16T03:40:15;49.40;;;26.15;;
65420;SDS011;52028;50.658;14.004;2022-10-16T03:42:44;54.78;;;27.92;;
65420;SDS011;52028;50.658;14.004;2022-10-16T03:45:10;48.10;;;25.08;;
65420;SDS011;52028;50.658;14.004;2022-10-16T03:47:36;56.38;;;26.95;;
65420;SDS011;52028;50.658;14.004;2022-10-16T03:50:01;52.28;;;26.23;;
65420;SDS011;52028;50.658;14.004;2022-10-16T03:52:27;46.30;;;24.27;;
65420;SDS011;52028;50.658;14.004;2022-10-16T03:54:53;44.08;;;23.65;;
65420;SDS011;52028;50.658;14.004;2022-10-16T03:57:18;50.97;;;25.70;;
65420;SDS011;52028;50.658;14.004;2022-10-16T03:59:43;48.70;;;24.38;;
65420;SDS011;52028;50.658;14.004;2022-10-16T04:02:09;46.78;;;24.40;;
65420;SDS011;52028;50.658;14.004;2022-10-16T04:04:35;44.90;;;24.45;;
65420;SDS011;52028;50.658;14.004;2022-10-16T04:07:00;45.45;;;23.90;;
65420;SDS011;52028;50.658;14.004;2022-10-16T04:09:26;48.95;;;24.27;;
65420;SDS011;52028;50.658;14.004;2022-10-16T04:11:51;45.70;;;24.15;;
65420;SDS011;52028;50.658;14.004;2022-10-16T04:14:16;43.28;;;22.80;;
65420;SDS011;52028;50.658;14.004;2022-10-16T04:16:42;49.08;;;25.15;;
65420;SDS011;52028;50.658;14.004;2022-10-16T04:19:07;46.13;;;26.20;;
65420;SDS011;52028;50.658;14.004;2022-10-16T04:21:33;47.85;;;25.13;;
65420;SDS011;52028;50.658;14.004;2022-10-16T04:23:59;55.90;;;26.17;;
65420;SDS011;52028;50.658;14.004;2022-10-16T04:26:24;46.45;;;24.45;;
65420;SDS011;52028;50.658;14.004;2022-10-16T04:28:49;47.33;;;23.77;;
65420;SDS011;52028;50.658;14.004;2022-10-16T04:31:14;58.47;;;25.67;;
65420;SDS011;52028;50.658;14.004;2022-10-16T04:33:42;52.10;;;26.05;;
65420;SDS011;52028;50.658;14.004;2022-10-16T04:36:08;50.80;;;27.00;;
65420;SDS011;52028;50.658;14.004;2022-10-16T04:38:33;56.25;;;27.25;;
65420;SDS011;52028;50.658;14.004;2022-10-16T04:40:59;50.42;;;27.13;;
65420;SDS011;52028;50.658;14.004;2022-10-16T04:43:24;48.08;;;27.17;;
65420;SDS011;52028;50.658;14.004;2022-10-16T04:45:50;43.22;;;25.50;;
65420;SDS011;52028;50.658;14.004;2022-10-16T04:48:16;52.50;;;26.52;;
65420;SDS011;52028;50.658;14.004;2022-10-16T04:50:42;49.47;;;26.13;;
65420;SDS011;52028;50.658;14.004;2022-10-16T04:53:07;53.38;;;27.65;;
65420;SDS011;52028;50.658;14.004;2022-10-16T04:55:32;45.85;;;24.45;;
65420;SDS011;52028;50.658;14.004;2022-10-16T04:57:58;59.85;;;33.58;;
65420;SDS011;52028;50.658;14.004;2022-10-16T05:00:23;82.28;;;44.42;;
65420;SDS011;52028;50.658;14.004;2022-10-16T05:02:52;72.03;;;41.33;;
65420;SDS011;52028;50.658;14.004;2022-10-16T05:05:17;82.60;;;49.28;;
65420;SDS011;52028;50.658;14.004;2022-10-16T05:07:44;86.57;;;47.97;;
65420;SDS011;52028;50.658;14.004;2022-10-16T05:10:10;63.83;;;38.83;;
65420;SDS011;52028;50.658;14.004;2022-10-16T05:12:35;87.47;;;48.00;;
65420;SDS011;52028;50.658;14.004;2022-10-16T05:15:01;89.25;;;49.72;;
65420;SDS011;52028;50.658;14.004;2022-10-16T05:17:26;77.57;;;44.20;;
65420;SDS011;52028;50.658;14.004;2022-10-16T05:19:52;61.53;;;32.83;;
65420;SDS011;52028;50.658;14.004;2022-10-16T05:22:17;76.75;;;42.72;;
65420;SDS011;52028;50.658;14.004;2022-10-16T05:24:42;74.25;;;44.13;;
65420;SDS011;52028;50.658;14.004;2022-10-16T05:27:08;76.00;;;43.95;;
65420;SDS011;52028;50.658;14.004;2022-10-16T05:29:33;67.97;;;38.00;;
65420;SDS011;52028;50.658;14.004;2022-10-16T05:31:58;69.72;;;36.88;;
65420;SDS011;52028;50.658;14.004;2022-10-16T05:34:24;69.65;;;38.55;;
65420;SDS011;52028;50.658;14.004;2022-10-16T05:36:49;63.83;;;35.97;;
65420;SDS011;52028;50.658;14.004;2022-10-16T05:39:15;60.10;;;34.33;;
65420;SDS011;52028;50.658;14.004;2022-10-16T05:41:42;51.90;;;30.65;;
65420;SDS011;52028;50.658;14.004;2022-10-16T05:44:07;56.88;;;30.80;;
65420;SDS011;52028;50.658;14.004;2022-10-16T05:46:33;53.30;;;26.77;;
65420;SDS011;52028;50.658;14.004;2022-10-16T05:48:58;44.25;;;24.10;;
65420;SDS011;52028;50.658;14.004;2022-10-16T05:51:24;53.35;;;25.83;;
65420;SDS011;52028;50.658;14.004;2022-10-16T05:53:49;50.22;;;26.30;;
65420;SDS011;52028;50.658;14.004;2022-10-16T05:56:14;53.83;;;27.48;;
65420;SDS011;52028;50.658;14.004;2022-10-16T05:58:40;56.88;;;28.40;;
65420;SDS011;52028;50.658;14.004;2022-10-16T06:01:10;48.28;;;25.45;;
65420;SDS011;52028;50.658;14.004;2022-10-16T06:03:40;59.15;;;28.33;;
65420;SDS011;52028;50.658;14.004;2022-10-16T06:06:07;55.45;;;28.85;;
65420;SDS011;52028;50.658;14.004;2022-10-16T06:08:42;58.40;;;28.08;;
65420;SDS011;52028;50.658;14.004;2022-10-16T06:11:11;54.92;;;28.17;;
65420;SDS011;52028;50.658;14.004;2022-10-16T06:13:38;40.58;;;22.40;;
65420;SDS011;52028;50.658;14.004;2022-10-16T06:16:06;47.85;;;24.20;;
65420;SDS011;52028;50.658;14.004;2022-10-16T06:18:32;47.17;;;24.67;;
65420;SDS011;52028;50.658;14.004;2022-10-16T06:20:57;47.50;;;24.60;;
65420;SDS011;52028;50.658;14.004;2022-10-16T06:23:24;46.85;;;23.80;;
65420;SDS011;52028;50.658;14.004;2022-10-16T06:25:50;38.92;;;21.25;;
65420;SDS011;52028;50.658;14.004;2022-10-16T06:28:15;41.47;;;22.95;;
65420;SDS011;52028;50.658;14.004;2022-10-16T06:30:41;40.05;;;21.35;;
65420;SDS011;52028;50.658;14.004;2022-10-16T06:33:08;40.05;;;22.20;;
65420;SDS011;52028;50.658;14.004;2022-10-16T06:35:34;45.72;;;23.55;;
65420;SDS011;52028;50.658;14.004;2022-10-16T06:38:00;48.83;;;24.73;;
65420;SDS011;52028;50.658;14.004;2022-10-16T06:40:25;51.35;;;24.85;;
65420;SDS011;52028;50.658;14.004;2022-10-16T06:42:51;46.70;;;24.88;;
65420;SDS011;52028;50.658;14.004;2022-10-16T06:45:19;48.65;;;24.85;;
65420;SDS011;52028;50.658;14.004;2022-10-16T06:47:44;44.83;;;24.42;;
65420;SDS011;52028;50.658;14.004;2022-10-16T06:50:10;46.72;;;22.90;;
65420;SDS011;52028;50.658;14.004;2022-10-16T06:52:35;41.47;;;22.23;;
65420;SDS011;52028;50.658;14.004;2022-10-16T06:55:00;41.55;;;23.13;;
65420;SDS011;52028;50.658;14.004;2022-10-16T06:57:26;42.00;;;23.63;;
65420;SDS011;52028;50.658;14.004;2022-10-16T06:59:51;42.90;;;22.60;;
65420;SDS011;52028;50.658;14.004;2022-10-16T07:02:17;44.13;;;24.05;;
65420;SDS011;52028;50.658;14.004;2022-10-16T07:04:42;40.88;;;23.65;;
65420;SDS011;52028;50.658;14.004;2022-10-16T07:07:07;41.72;;;22.42;;
65420;SDS011;52028;50.658;14.004;2022-10-16T07:09:33;39.50;;;21.63;;
65420;SDS011;52028;50.658;14.004;2022-10-16T07:11:58;42.65;;;22.27;;
65420;SDS011;52028;50.658;14.004;2022-10-16T07:14:23;42.55;;;22.98;;
65420;SDS011;52028;50.658;14.004;2022-10-16T07:16:49;42.30;;;22.33;;
65420;SDS011;52028;50.658;14.004;2022-10-16T07:19:14;44.97;;;22.27;;
65420;SDS011;52028;50.658;14.004;2022-10-16T07:21:41;34.30;;;19.20;;
65420;SDS011;52028;50.658;14.004;2022-10-16T07:24:10;40.33;;;21.17;;
65420;SDS011;52028;50.658;14.004;2022-10-16T07:26:38;37.13;;;20.42;;
65420;SDS011;52028;50.658;14.004;2022-10-16T07:29:05;34.47;;;18.58;;
65420;SDS011;52028;50.658;14.004;2022-10-16T07:31:32;37.17;;;19.13;;
65420;SDS011;52028;50.658;14.004;2022-10-16T07:33:59;31.33;;;17.27;;
65420;SDS011;52028;50.658;14.004;2022-10-16T07:36:24;31.60;;;17.73;;
65420;SDS011;52028;50.658;14.004;2022-10-16T07:38:50;31.90;;;17.23;;
65420;SDS011;52028;50.658;14.004;2022-10-16T07:41:16;31.05;;;18.15;;
65420;SDS011;52028;50.658;14.004;2022-10-16T07:43:47;34.88;;;19.38;;
65420;SDS011;52028;50.658;14.004;2022-10-16T07:46:13;31.00;;;17.80;;
65420;SDS011;52028;50.658;14.004;2022-10-16T07:48:39;34.33;;;19.58;;
65420;SDS011;52028;50.658;14.004;2022-10-16T07:51:06;34.08;;;19.20;;
65420;SDS011;52028;50.658;14.004;2022-10-16T07:53:32;28.98;;;15.55;;
65420;SDS011;52028;50.658;14.004;2022-10-16T07:56:02;26.75;;;15.88;;
65420;SDS011;52028;50.658;14.004;2022-10-16T07:58:29;22.17;;;13.75;;
65420;SDS011;52028;50.658;14.004;2022-10-16T08:00:55;20.75;;;13.38;;
65420;SDS011;52028;50.658;14.004;2022-10-16T08:03:21;24.52;;;13.15;;
65420;SDS011;52028;50.658;14.004;2022-10-16T08:05:46;16.42;;;8.73;;
65420;SDS011;52028;50.658;14.004;2022-10-16T08:08:12;15.38;;;9.52;;
65420;SDS011;52028;50.658;14.004;2022-10-16T08:10:39;13.02;;;7.95;;
65420;SDS011;52028;50.658;14.004;2022-10-16T08:13:05;12.13;;;7.95;;
65420;SDS011;52028;50.658;14.004;2022-10-16T08:15:33;13.70;;;8.48;;
65420;SDS011;52028;50.658;14.004;2022-10-16T08:18:02;11.68;;;7.80;;
65420;SDS011;52028;50.658;14.004;2022-10-16T08:20:30;9.32;;;7.00;;
65420;SDS011;52028;50.658;14.004;2022-10-16T08:22:56;7.55;;;5.45;;
65420;SDS011;52028;50.658;14.004;2022-10-16T08:25:22;10.18;;;6.32;;
65420;SDS011;52028;50.658;14.004;2022-10-16T08:27:48;12.40;;;7.03;;
65420;SDS011;52028;50.658;14.004;2022-10-16T08:30:14;9.95;;;6.80;;
65420;SDS011;52028;50.658;14.004;2022-10-16T08:32:40;11.80;;;7.57;;
65420;SDS011;52028;50.658;14.004;2022-10-16T08:35:07;11.52;;;7.07;;
65420;SDS011;52028;50.658;14.004;2022-10-16T08:37:34;12.40;;;7.00;;
65420;SDS011;52028;50.658;14.004;2022-10-16T08:39:59;14.05;;;7.13;;
65420;SDS011;52028;50.658;14.004;2022-10-16T08:45:04;15.45;;;8.85;;
65420;SDS011;52028;50.658;14.004;2022-10-16T08:50:12;13.52;;;8.45;;
65420;SDS011;52028;50.658;14.004;2022-10-16T08:52:40;19.45;;;10.65;;
65420;SDS011;52028;50.658;14.004;2022-10-16T08:55:17;16.42;;;10.27;;
65420;SDS011;52028;50.658;14.004;2022-10-16T08:57:53;21.10;;;12.50;;
65420;SDS011;52028;50.658;14.004;2022-10-16T09:00:18;28.48;;;14.40;;
65420;SDS011;52028;50.658;14.004;2022-10-16T09:08:11;22.58;;;11.05;;
65420;SDS011;52028;50.658;14.004;2022-10-16T09:19:13;18.20;;;8.13;;
65420;SDS011;52028;50.658;14.004;2022-10-16T09:21:45;12.77;;;7.57;;
65420;SDS011;52028;50.658;14.004;2022-10-16T09:26:42;12.43;;;7.35;;
65420;SDS011;52028;50.658;14.004;2022-10-16T09:29:18;10.85;;;7.03;;
65420;SDS011;52028;50.658;14.004;2022-10-16T09:31:45;11.68;;;6.72;;
65420;SDS011;52028;50.658;14.004;2022-10-16T09:34:32;10.43;;;7.03;;
65420;SDS011;52028;50.658;14.004;2022-10-16T09:36:58;11.05;;;7.03;;
65420;SDS011;52028;50.658;14.004;2022-10-16T09:39:25;14.95;;;7.30;;
65420;SDS011;52028;50.658;14.004;2022-10-16T09:41:50;10.88;;;6.70;;
65420;SDS011;52028;50.658;14.004;2022-10-16T09:44:27;13.52;;;7.40;;
65420;SDS011;52028;50.658;14.004;2022-10-16T09:47:04;8.80;;;6.00;;
65420;SDS011;52028;50.658;14.004;2022-10-16T09:49:37;10.57;;;6.32;;
65420;SDS011;52028;50.658;14.004;2022-10-16T09:52:12;11.98;;;7.00;;
65420;SDS011;52028;50.658;14.004;2022-10-16T09:54:48;10.50;;;6.43;;
65420;SDS011;52028;50.658;14.004;2022-10-16T09:57:18;10.85;;;6.38;;
65420;SDS011;52028;50.658;14.004;2022-10-16T09:59:56;9.82;;;5.78;;
65420;SDS011;52028;50.658;14.004;2022-10-16T10:04:55;7.25;;;4.35;;
65420;SDS011;52028;50.658;14.004;2022-10-16T10:07:25;6.43;;;3.85;;
65420;SDS011;52028;50.658;14.004;2022-10-16T10:09:53;7.40;;;4.90;;
65420;SDS011;52028;50.658;14.004;2022-10-16T10:14:48;8.25;;;5.70;;
65420;SDS011;52028;50.658;14.004;2022-10-16T10:17:22;8.02;;;5.22;;
65420;SDS011;52028;50.658;14.004;2022-10-16T10:25:15;6.40;;;5.05;;
65420;SDS011;52028;50.658;14.004;2022-10-16T10:36:39;5.47;;;3.72;;
65420;SDS011;52028;50.658;14.004;2022-10-16T10:46:23;9.63;;;4.03;;
65420;SDS011;52028;50.658;14.004;2022-10-16T10:49:01;6.10;;;4.10;;
65420;SDS011;52028;50.658;14.004;2022-10-16T10:54:38;6.63;;;4.32;;
65420;SDS011;52028;50.658;14.004;2022-10-16T11:08:06;5.53;;;3.53;;
65420;SDS011;52028;50.658;14.004;2022-10-16T11:10:52;9.18;;;4.25;;
65420;SDS011;52028;50.658;14.004;2022-10-16T11:15:55;7.18;;;4.28;;
65420;SDS011;52028;50.658;14.004;2022-10-16T11:21:04;4.68;;;2.70;;
65420;SDS011;52028;50.658;14.004;2022-10-16T11:23:37;5.15;;;2.60;;
65420;SDS011;52028;50.658;14.004;2022-10-16T11:26:21;5.95;;;3.17;;
65420;SDS011;52028;50.658;14.004;2022-10-16T11:28:51;5.88;;;2.85;;
65420;SDS011;52028;50.658;14.004;2022-10-16T11:31:34;7.72;;;3.60;;
65420;SDS011;52028;50.658;14.004;2022-10-16T11:39:24;6.80;;;3.97;;
65420;SDS011;52028;50.658;14.004;2022-10-16T11:49:30;6.18;;;3.42;;
65420;SDS011;52028;50.658;14.004;2022-10-16T11:54:45;7.43;;;3.80;;
65420;SDS011;52028;50.658;14.004;2022-10-16T11:57:16;4.85;;;3.03;;
65420;SDS011;52028;50.658;14.004;2022-10-16T11:59:51;5.93;;;3.60;;
65420;SDS011;52028;50.658;14.004;2022-10-16T12:05:05;9.77;;;4.57;;
65420;SDS011;52028;50.658;14.004;2022-10-16T12:07:41;4.88;;;3.35;;
65420;SDS011;52028;50.658;14.004;2022-10-16T12:10:24;5.25;;;2.60;;
65420;SDS011;52028;50.658;14.004;2022-10-16T12:12:52;5.18;;;3.13;;
65420;SDS011;52028;50.658;14.004;2022-10-16T12:17:47;4.78;;;3.60;;
65420;SDS011;52028;50.658;14.004;2022-10-16T12:22:42;6.25;;;3.38;;
65420;SDS011;52028;50.658;14.004;2022-10-16T12:25:32;5.28;;;3.30;;
65420;SDS011;52028;50.658;14.004;2022-10-16T12:28:03;3.80;;;2.75;;
65420;SDS011;52028;50.658;14.004;2022-10-16T12:30:32;4.22;;;3.17;;
65420;SDS011;52028;50.658;14.004;2022-10-16T12:33:01;4.45;;;2.83;;
65420;SDS011;52028;50.658;14.004;2022-10-16T12:35:33;5.43;;;2.63;;
65420;SDS011;52028;50.658;14.004;2022-10-16T12:38:15;4.00;;;2.80;;
65420;SDS011;52028;50.658;14.004;2022-10-16T12:40:43;4.40;;;2.90;;
65420;SDS011;52028;50.658;14.004;2022-10-16T12:43:13;7.63;;;2.75;;
65420;SDS011;52028;50.658;14.004;2022-10-16T12:46:04;6.60;;;3.83;;
65420;SDS011;52028;50.658;14.004;2022-10-16T12:48:36;5.15;;;2.55;;
65420;SDS011;52028;50.658;14.004;2022-10-16T12:54:00;6.28;;;2.78;;
65420;SDS011;52028;50.658;14.004;2022-10-16T13:04:29;3.65;;;2.30;;
65420;SDS011;52028;50.658;14.004;2022-10-16T13:15:13;6.38;;;2.25;;
65420;SDS011;52028;50.658;14.004;2022-10-16T13:17:52;5.90;;;2.90;;
65420;SDS011;52028;50.658;14.004;2022-10-16T13:20:51;4.50;;;2.67;;
65420;SDS011;52028;50.658;14.004;2022-10-16T13:26:18;4.97;;;2.63;;
65420;SDS011;52028;50.658;14.004;2022-10-16T13:28:51;3.20;;;2.40;;
65420;SDS011;52028;50.658;14.004;2022-10-16T13:31:18;6.88;;;3.00;;
65420;SDS011;52028;50.658;14.004;2022-10-16T13:33:47;4.57;;;2.65;;
65420;SDS011;52028;50.658;14.004;2022-10-16T13:36:21;4.57;;;2.58;;
65420;SDS011;52028;50.658;14.004;2022-10-16T13:41:37;4.28;;;2.63;;
65420;SDS011;52028;50.658;14.004;2022-10-16T13:44:03;7.25;;;2.55;;
65420;SDS011;52028;50.658;14.004;2022-10-16T13:46:30;4.38;;;2.58;;
65420;SDS011;52028;50.658;14.004;2022-10-16T13:49:00;3.33;;;2.20;;
65420;SDS011;52028;50.658;14.004;2022-10-16T13:51:27;5.97;;;2.23;;
65420;SDS011;52028;50.658;14.004;2022-10-16T13:53:54;3.75;;;2.38;;
65420;SDS011;52028;50.658;14.004;2022-10-16T13:56:21;4.72;;;2.30;;
65420;SDS011;52028;50.658;14.004;2022-10-16T14:01:57;4.57;;;2.88;;
65420;SDS011;52028;50.658;14.004;2022-10-16T14:04:31;4.50;;;1.98;;
65420;SDS011;52028;50.658;14.004;2022-10-16T14:06:57;3.67;;;2.42;;
65420;SDS011;52028;50.658;14.004;2022-10-16T14:09:24;5.38;;;2.70;;
65420;SDS011;52028;50.658;14.004;2022-10-16T14:11:55;4.47;;;2.57;;
65420;SDS011;52028;50.658;14.004;2022-10-16T14:14:25;4.85;;;2.20;;
65420;SDS011;52028;50.658;14.004;2022-10-16T14:16:57;4.25;;;2.40;;
65420;SDS011;52028;50.658;14.004;2022-10-16T14:19:23;6.07;;;3.10;;
65420;SDS011;52028;50.658;14.004;2022-10-16T14:21:52;4.97;;;2.58;;
65420;SDS011;52028;50.658;14.004;2022-10-16T14:26:54;3.30;;;1.70;;
65420;SDS011;52028;50.658;14.004;2022-10-16T14:29:21;5.15;;;2.53;;
65420;SDS011;52028;50.658;14.004;2022-10-16T14:31:54;3.95;;;1.80;;
65420;SDS011;52028;50.658;14.004;2022-10-16T14:36:59;3.17;;;1.63;;
65420;SDS011;52028;50.658;14.004;2022-10-16T14:39:29;1.63;;;1.27;;
65420;SDS011;52028;50.658;14.004;2022-10-16T14:41:56;3.65;;;1.55;;
65420;SDS011;52028;50.658;14.004;2022-10-16T14:44:24;1.83;;;1.10;;
65420;SDS011;52028;50.658;14.004;2022-10-16T14:46:54;2.03;;;1.20;;
65420;SDS011;52028;50.658;14.004;2022-10-16T14:49:20;1.85;;;1.40;;
65420;SDS011;52028;50.658;14.004;2022-10-16T14:51:48;2.28;;;1.10;;
65420;SDS011;52028;50.658;14.004;2022-10-16T14:54:15;3.22;;;1.50;;
65420;SDS011;52028;50.658;14.004;2022-10-16T14:56:46;3.65;;;1.48;;
65420;SDS011;52028;50.658;14.004;2022-10-16T15:02:16;2.63;;;1.17;;
65420;SDS011;52028;50.658;14.004;2022-10-16T15:04:43;2.28;;;1.38;;
65420;SDS011;52028;50.658;14.004;2022-10-16T15:07:08;2.53;;;1.40;;
65420;SDS011;52028;50.658;14.004;2022-10-16T15:09:33;2.38;;;1.10;;
65420;SDS011;52028;50.658;14.004;2022-10-16T15:11:59;1.73;;;1.10;;
65420;SDS011;52028;50.658;14.004;2022-10-16T15:14:24;2.45;;;1.38;;
65420;SDS011;52028;50.658;14.004;2022-10-16T15:16:49;4.18;;;1.15;;
65420;SDS011;52028;50.658;14.004;2022-10-16T15:19:15;2.30;;;1.20;;
65420;SDS011;52028;50.658;14.004;2022-10-16T15:21:40;2.13;;;1.30;;
65420;SDS011;52028;50.658;14.004;2022-10-16T15:24:11;4.20;;;1.83;;
65420;SDS011;52028;50.658;14.004;2022-10-16T15:26:37;4.05;;;1.23;;
65420;SDS011;52028;50.658;14.004;2022-10-16T15:29:03;2.90;;;1.38;;
65420;SDS011;52028;50.658;14.004;2022-10-16T15:31:29;4.78;;;1.30;;
65420;SDS011;52028;50.658;14.004;2022-10-16T15:33:54;1.38;;;1.10;;
65420;SDS011;52028;50.658;14.004;2022-10-16T15:36:41;2.25;;;1.27;;
65420;SDS011;52028;50.658;14.004;2022-10-16T15:39:14;2.85;;;1.33;;
65420;SDS011;52028;50.658;14.004;2022-10-16T15:41:41;2.95;;;1.40;;
65420;SDS011;52028;50.658;14.004;2022-10-16T15:44:07;3.42;;;1.65;;
65420;SDS011;52028;50.658;14.004;2022-10-16T15:46:32;4.28;;;1.80;;
65420;SDS011;52028;50.658;14.004;2022-10-16T15:48:59;3.78;;;1.92;;
65420;SDS011;52028;50.658;14.004;2022-10-16T15:51:25;5.30;;;2.30;;
65420;SDS011;52028;50.658;14.004;2022-10-16T15:56:21;3.88;;;1.58;;
65420;SDS011;52028;50.658;14.004;2022-10-16T15:58:47;3.90;;;1.95;;
65420;SDS011;52028;50.658;14.004;2022-10-16T16:01:13;6.95;;;2.10;;
65420;SDS011;52028;50.658;14.004;2022-10-16T16:03:38;3.63;;;1.92;;
65420;SDS011;52028;50.658;14.004;2022-10-16T16:06:08;7.00;;;2.72;;
65420;SDS011;52028;50.658;14.004;2022-10-16T16:08:35;4.67;;;2.20;;
65420;SDS011;52028;50.658;14.004;2022-10-16T16:11:02;7.50;;;2.30;;
65420;SDS011;52028;50.658;14.004;2022-10-16T16:13:31;5.07;;;2.35;;
65420;SDS011;52028;50.658;14.004;2022-10-16T16:15:57;32.83;;;21.38;;
65420;SDS011;52028;50.658;14.004;2022-10-16T16:18:22;36.50;;;27.60;;
65420;SDS011;52028;50.658;14.004;2022-10-16T16:20:49;20.60;;;13.80;;
65420;SDS011;52028;50.658;14.004;2022-10-16T16:23:15;10.55;;;5.75;;
65420;SDS011;52028;50.658;14.004;2022-10-16T16:25:40;6.50;;;2.20;;
65420;SDS011;52028;50.658;14.004;2022-10-16T16:28:05;5.93;;;3.10;;
65420;SDS011;52028;50.658;14.004;2022-10-16T16:30:32;4.43;;;2.55;;
65420;SDS011;52028;50.658;14.004;2022-10-16T16:32:57;6.28;;;2.58;;
65420;SDS011;52028;50.658;14.004;2022-10-16T16:35:22;4.70;;;2.95;;
65420;SDS011;52028;50.658;14.004;2022-10-16T16:37:48;4.43;;;2.80;;
65420;SDS011;52028;50.658;14.004;2022-10-16T16:40:13;4.93;;;2.58;;
65420;SDS011;52028;50.658;14.004;2022-10-16T16:42:38;7.85;;;3.08;;
65420;SDS011;52028;50.658;14.004;2022-10-16T16:45:04;7.13;;;3.38;;